Accueil
METAR-TAF:

METAR-TAF

Aéroports :

Monte Cimone, Italie

latitude: 44-12N, longitude: 010-42E, altitude: 2165 m

Observation

Le bulletin a été fait il y a 1 heure et 17 minutes, à 20:55 UTC
Vent 5 kt de ouest/nord-ouest
Température 1°C
Humidité 93%
Pression 1020 hPa
Visibilité inférieure à 50 m
brouillard

METAR: LIVC 242055Z 30005KT 0000 FG VV000 01/00 Q1020 RMK MON INVIS VAL INVIS VIS MIN 0000

Heure: 23:12 (22:12 UTC)


TAF: absent

Observations et prévisions météorologiques de plus de 4000 aéroports (messages METAR et TAF).

Les stations disponibles sont représentées par des disques jaunes et rouges sur la carte.

Passer la souris dessus pour voir le nom de la station.

Cliquer dessus pour voir les observations et prévisions météorologiques.

Pour changer de carte: cliquez sur les boutons verts avec une croix noire pour zoomer, sur le bouton vert avec un tiret pour effectuer un zoom arrière, ou sur les flèches vertes pour les cartes adjacentes.


METAR-TAF: